sensor_id;sensor_type;location;lat;lon;timestamp;P1;durP1;ratioP1;P2;durP2;ratioP2
66298;SDS011;53098;47.658;8.578;2023-09-30T00:02:06;20.10;;;8.50;;
66298;SDS011;53098;47.658;8.578;2023-09-30T00:04:32;21.92;;;8.35;;
66298;SDS011;53098;47.658;8.578;2023-09-30T00:06:57;21.45;;;8.93;;
66298;SDS011;53098;47.658;8.578;2023-09-30T00:09:22;24.15;;;8.48;;
66298;SDS011;53098;47.658;8.578;2023-09-30T00:11:48;23.00;;;8.43;;
66298;SDS011;53098;47.658;8.578;2023-09-30T00:14:13;19.67;;;7.93;;
66298;SDS011;53098;47.658;8.578;2023-09-30T00:16:39;20.85;;;7.70;;
66298;SDS011;53098;47.658;8.578;2023-09-30T00:19:04;19.23;;;7.85;;
66298;SDS011;53098;47.658;8.578;2023-09-30T00:21:30;20.35;;;7.95;;
66298;SDS011;53098;47.658;8.578;2023-09-30T00:23:55;19.88;;;7.25;;
66298;SDS011;53098;47.658;8.578;2023-09-30T00:26:21;20.10;;;7.35;;
66298;SDS011;53098;47.658;8.578;2023-09-30T00:28:46;20.45;;;7.30;;
66298;SDS011;53098;47.658;8.578;2023-09-30T00:31:12;20.17;;;7.00;;
66298;SDS011;53098;47.658;8.578;2023-09-30T00:33:37;16.60;;;6.43;;
66298;SDS011;53098;47.658;8.578;2023-09-30T00:36:09;18.92;;;6.40;;
66298;SDS011;53098;47.658;8.578;2023-09-30T00:38:35;17.92;;;5.90;;
66298;SDS011;53098;47.658;8.578;2023-09-30T00:41:01;18.33;;;7.28;;
66298;SDS011;53098;47.658;8.578;2023-09-30T00:43:27;22.73;;;7.53;;
66298;SDS011;53098;47.658;8.578;2023-09-30T00:45:54;22.08;;;7.43;;
66298;SDS011;53098;47.658;8.578;2023-09-30T00:48:27;23.08;;;8.13;;
66298;SDS011;53098;47.658;8.578;2023-09-30T00:50:53;20.83;;;7.20;;
66298;SDS011;53098;47.658;8.578;2023-09-30T00:53:18;19.90;;;7.43;;
66298;SDS011;53098;47.658;8.578;2023-09-30T00:55:43;20.02;;;7.68;;
66298;SDS011;53098;47.658;8.578;2023-09-30T00:58:09;19.25;;;7.88;;
66298;SDS011;53098;47.658;8.578;2023-09-30T01:00:35;22.90;;;8.05;;
66298;SDS011;53098;47.658;8.578;2023-09-30T01:03:00;21.75;;;7.95;;
66298;SDS011;53098;47.658;8.578;2023-09-30T01:05:26;25.15;;;8.82;;
66298;SDS011;53098;47.658;8.578;2023-09-30T01:07:51;20.70;;;7.82;;
66298;SDS011;53098;47.658;8.578;2023-09-30T01:10:17;20.23;;;8.38;;
66298;SDS011;53098;47.658;8.578;2023-09-30T01:12:42;21.70;;;7.60;;
66298;SDS011;53098;47.658;8.578;2023-09-30T01:15:07;21.77;;;8.15;;
66298;SDS011;53098;47.658;8.578;2023-09-30T01:17:33;22.70;;;7.85;;
66298;SDS011;53098;47.658;8.578;2023-09-30T01:19:58;22.42;;;8.35;;
66298;SDS011;53098;47.658;8.578;2023-09-30T01:22:24;23.48;;;8.40;;
66298;SDS011;53098;47.658;8.578;2023-09-30T01:24:50;20.08;;;7.93;;
66298;SDS011;53098;47.658;8.578;2023-09-30T01:27:15;23.73;;;7.82;;
66298;SDS011;53098;47.658;8.578;2023-09-30T01:29:40;23.23;;;7.63;;
66298;SDS011;53098;47.658;8.578;2023-09-30T01:32:06;15.95;;;6.45;;
66298;SDS011;53098;47.658;8.578;2023-09-30T01:34:32;23.48;;;7.43;;
66298;SDS011;53098;47.658;8.578;2023-09-30T01:36:57;19.23;;;6.30;;
66298;SDS011;53098;47.658;8.578;2023-09-30T01:39:22;19.30;;;6.63;;
66298;SDS011;53098;47.658;8.578;2023-09-30T01:41:48;18.17;;;6.93;;
66298;SDS011;53098;47.658;8.578;2023-09-30T01:44:13;18.88;;;6.70;;
66298;SDS011;53098;47.658;8.578;2023-09-30T01:46:39;18.75;;;6.78;;
66298;SDS011;53098;47.658;8.578;2023-09-30T01:49:04;23.27;;;8.05;;
66298;SDS011;53098;47.658;8.578;2023-09-30T01:51:29;19.83;;;7.43;;
66298;SDS011;53098;47.658;8.578;2023-09-30T01:53:55;17.58;;;6.32;;
66298;SDS011;53098;47.658;8.578;2023-09-30T01:56:21;20.60;;;6.97;;
66298;SDS011;53098;47.658;8.578;2023-09-30T01:58:47;17.95;;;6.72;;
66298;SDS011;53098;47.658;8.578;2023-09-30T02:01:12;17.98;;;5.90;;
66298;SDS011;53098;47.658;8.578;2023-09-30T02:03:38;15.73;;;5.38;;
66298;SDS011;53098;47.658;8.578;2023-09-30T02:06:03;16.25;;;4.93;;
66298;SDS011;53098;47.658;8.578;2023-09-30T02:08:29;17.17;;;5.50;;
66298;SDS011;53098;47.658;8.578;2023-09-30T02:10:54;16.33;;;5.82;;
66298;SDS011;53098;47.658;8.578;2023-09-30T02:13:20;15.30;;;4.63;;
66298;SDS011;53098;47.658;8.578;2023-09-30T02:15:45;14.57;;;4.93;;
66298;SDS011;53098;47.658;8.578;2023-09-30T02:18:11;19.15;;;5.60;;
66298;SDS011;53098;47.658;8.578;2023-09-30T02:20:36;18.42;;;6.18;;
66298;SDS011;53098;47.658;8.578;2023-09-30T02:23:02;15.77;;;4.90;;
66298;SDS011;53098;47.658;8.578;2023-09-30T02:25:27;14.38;;;4.00;;
66298;SDS011;53098;47.658;8.578;2023-09-30T02:27:53;15.48;;;5.57;;
66298;SDS011;53098;47.658;8.578;2023-09-30T02:30:19;10.48;;;3.47;;
66298;SDS011;53098;47.658;8.578;2023-09-30T02:32:44;16.05;;;5.07;;
66298;SDS011;53098;47.658;8.578;2023-09-30T02:35:10;16.02;;;4.80;;
66298;SDS011;53098;47.658;8.578;2023-09-30T02:37:35;15.13;;;4.45;;
66298;SDS011;53098;47.658;8.578;2023-09-30T02:40:01;13.75;;;4.47;;
66298;SDS011;53098;47.658;8.578;2023-09-30T02:42:31;15.98;;;5.03;;
66298;SDS011;53098;47.658;8.578;2023-09-30T02:44:59;13.30;;;4.95;;
66298;SDS011;53098;47.658;8.578;2023-09-30T02:47:25;14.40;;;4.97;;
66298;SDS011;53098;47.658;8.578;2023-09-30T02:49:50;14.52;;;4.88;;
66298;SDS011;53098;47.658;8.578;2023-09-30T02:52:16;14.98;;;4.80;;
66298;SDS011;53098;47.658;8.578;2023-09-30T02:54:41;15.35;;;5.28;;
66298;SDS011;53098;47.658;8.578;2023-09-30T02:57:06;16.55;;;4.68;;
66298;SDS011;53098;47.658;8.578;2023-09-30T02:59:32;13.30;;;4.47;;
66298;SDS011;53098;47.658;8.578;2023-09-30T03:01:57;13.18;;;4.90;;
66298;SDS011;53098;47.658;8.578;2023-09-30T03:04:23;14.05;;;4.25;;
66298;SDS011;53098;47.658;8.578;2023-09-30T03:06:48;14.80;;;5.07;;
66298;SDS011;53098;47.658;8.578;2023-09-30T03:09:14;14.05;;;4.93;;
66298;SDS011;53098;47.658;8.578;2023-09-30T03:11:39;13.20;;;4.65;;
66298;SDS011;53098;47.658;8.578;2023-09-30T03:14:04;16.27;;;5.20;;
66298;SDS011;53098;47.658;8.578;2023-09-30T03:16:30;16.58;;;5.10;;
66298;SDS011;53098;47.658;8.578;2023-09-30T03:18:55;13.48;;;4.88;;
66298;SDS011;53098;47.658;8.578;2023-09-30T03:21:21;15.63;;;4.95;;
66298;SDS011;53098;47.658;8.578;2023-09-30T03:23:46;14.35;;;5.10;;
66298;SDS011;53098;47.658;8.578;2023-09-30T03:26:12;16.92;;;5.50;;
66298;SDS011;53098;47.658;8.578;2023-09-30T03:28:37;17.00;;;5.45;;
66298;SDS011;53098;47.658;8.578;2023-09-30T03:31:03;16.42;;;5.32;;
66298;SDS011;53098;47.658;8.578;2023-09-30T03:33:29;15.40;;;4.80;;
66298;SDS011;53098;47.658;8.578;2023-09-30T03:35:54;14.07;;;4.55;;
66298;SDS011;53098;47.658;8.578;2023-09-30T03:38:19;15.50;;;5.30;;
66298;SDS011;53098;47.658;8.578;2023-09-30T03:40:45;15.73;;;4.57;;
66298;SDS011;53098;47.658;8.578;2023-09-30T03:43:10;10.93;;;3.67;;
66298;SDS011;53098;47.658;8.578;2023-09-30T03:45:36;15.93;;;4.35;;
66298;SDS011;53098;47.658;8.578;2023-09-30T03:48:01;17.20;;;4.57;;
66298;SDS011;53098;47.658;8.578;2023-09-30T03:50:27;16.50;;;5.05;;
66298;SDS011;53098;47.658;8.578;2023-09-30T03:53:00;15.93;;;5.00;;
66298;SDS011;53098;47.658;8.578;2023-09-30T03:55:26;12.73;;;4.43;;
66298;SDS011;53098;47.658;8.578;2023-09-30T03:57:51;15.45;;;5.18;;
66298;SDS011;53098;47.658;8.578;2023-09-30T04:00:17;12.88;;;4.63;;
66298;SDS011;53098;47.658;8.578;2023-09-30T04:02:42;14.10;;;4.88;;
66298;SDS011;53098;47.658;8.578;2023-09-30T04:05:08;15.10;;;4.68;;
66298;SDS011;53098;47.658;8.578;2023-09-30T04:07:34;14.95;;;4.88;;
66298;SDS011;53098;47.658;8.578;2023-09-30T04:09:59;15.65;;;4.93;;
66298;SDS011;53098;47.658;8.578;2023-09-30T04:12:25;14.18;;;4.80;;
66298;SDS011;53098;47.658;8.578;2023-09-30T04:14:50;13.73;;;4.03;;
66298;SDS011;53098;47.658;8.578;2023-09-30T04:17:16;15.10;;;4.80;;
66298;SDS011;53098;47.658;8.578;2023-09-30T04:19:42;16.02;;;4.07;;
66298;SDS011;53098;47.658;8.578;2023-09-30T04:22:07;15.45;;;4.80;;
66298;SDS011;53098;47.658;8.578;2023-09-30T04:24:32;13.57;;;4.50;;
66298;SDS011;53098;47.658;8.578;2023-09-30T04:26:58;13.57;;;4.45;;
66298;SDS011;53098;47.658;8.578;2023-09-30T04:29:23;14.07;;;4.68;;
66298;SDS011;53098;47.658;8.578;2023-09-30T04:31:48;13.13;;;4.40;;
66298;SDS011;53098;47.658;8.578;2023-09-30T04:34:14;13.80;;;4.47;;
66298;SDS011;53098;47.658;8.578;2023-09-30T04:36:39;14.40;;;4.95;;
66298;SDS011;53098;47.658;8.578;2023-09-30T04:39:05;13.48;;;4.47;;
66298;SDS011;53098;47.658;8.578;2023-09-30T04:41:30;12.43;;;4.03;;
66298;SDS011;53098;47.658;8.578;2023-09-30T04:43:56;13.48;;;4.47;;
66298;SDS011;53098;47.658;8.578;2023-09-30T04:46:21;13.85;;;5.30;;
66298;SDS011;53098;47.658;8.578;2023-09-30T04:48:47;14.00;;;4.78;;
66298;SDS011;53098;47.658;8.578;2023-09-30T04:51:12;15.38;;;4.82;;
66298;SDS011;53098;47.658;8.578;2023-09-30T04:53:38;14.52;;;5.15;;
66298;SDS011;53098;47.658;8.578;2023-09-30T04:56:03;17.67;;;4.93;;
66298;SDS011;53098;47.658;8.578;2023-09-30T04:58:29;13.77;;;4.82;;
66298;SDS011;53098;47.658;8.578;2023-09-30T05:00:54;13.40;;;4.55;;
66298;SDS011;53098;47.658;8.578;2023-09-30T05:03:20;13.48;;;4.38;;
66298;SDS011;53098;47.658;8.578;2023-09-30T05:05:45;15.02;;;5.05;;
66298;SDS011;53098;47.658;8.578;2023-09-30T05:08:11;15.30;;;4.70;;
66298;SDS011;53098;47.658;8.578;2023-09-30T05:10:36;13.13;;;3.97;;
66298;SDS011;53098;47.658;8.578;2023-09-30T05:13:02;13.45;;;4.75;;
66298;SDS011;53098;47.658;8.578;2023-09-30T05:15:27;11.63;;;3.67;;
66298;SDS011;53098;47.658;8.578;2023-09-30T05:17:53;11.95;;;3.80;;
66298;SDS011;53098;47.658;8.578;2023-09-30T05:20:18;12.77;;;4.40;;
66298;SDS011;53098;47.658;8.578;2023-09-30T05:22:44;15.15;;;4.50;;
66298;SDS011;53098;47.658;8.578;2023-09-30T05:25:09;17.95;;;4.70;;
66298;SDS011;53098;47.658;8.578;2023-09-30T05:27:35;14.48;;;5.00;;
66298;SDS011;53098;47.658;8.578;2023-09-30T05:30:00;13.00;;;4.53;;
66298;SDS011;53098;47.658;8.578;2023-09-30T05:32:26;15.10;;;4.63;;
66298;SDS011;53098;47.658;8.578;2023-09-30T05:34:51;13.35;;;4.50;;
66298;SDS011;53098;47.658;8.578;2023-09-30T05:37:16;10.70;;;3.80;;
66298;SDS011;53098;47.658;8.578;2023-09-30T05:39:42;13.32;;;4.25;;
66298;SDS011;53098;47.658;8.578;2023-09-30T05:42:08;16.70;;;5.00;;
66298;SDS011;53098;47.658;8.578;2023-09-30T05:44:34;12.90;;;3.95;;
66298;SDS011;53098;47.658;8.578;2023-09-30T05:47:00;14.68;;;4.70;;
66298;SDS011;53098;47.658;8.578;2023-09-30T05:49:25;14.68;;;4.68;;
66298;SDS011;53098;47.658;8.578;2023-09-30T05:51:51;14.55;;;4.20;;
66298;SDS011;53098;47.658;8.578;2023-09-30T05:54:16;14.57;;;5.10;;
66298;SDS011;53098;47.658;8.578;2023-09-30T05:56:42;11.95;;;4.18;;
66298;SDS011;53098;47.658;8.578;2023-09-30T05:59:07;14.52;;;4.45;;
66298;SDS011;53098;47.658;8.578;2023-09-30T06:01:33;12.43;;;4.75;;
66298;SDS011;53098;47.658;8.578;2023-09-30T06:03:59;16.40;;;4.95;;
66298;SDS011;53098;47.658;8.578;2023-09-30T06:06:25;12.00;;;4.25;;
66298;SDS011;53098;47.658;8.578;2023-09-30T06:08:54;13.30;;;4.30;;
66298;SDS011;53098;47.658;8.578;2023-09-30T06:11:20;14.10;;;4.55;;
66298;SDS011;53098;47.658;8.578;2023-09-30T06:13:47;14.27;;;4.32;;
66298;SDS011;53098;47.658;8.578;2023-09-30T06:16:12;13.10;;;5.07;;
66298;SDS011;53098;47.658;8.578;2023-09-30T06:18:38;13.65;;;3.90;;
66298;SDS011;53098;47.658;8.578;2023-09-30T06:21:04;15.50;;;5.35;;
66298;SDS011;53098;47.658;8.578;2023-09-30T06:23:29;15.85;;;7.18;;
66298;SDS011;53098;47.658;8.578;2023-09-30T06:25:56;19.42;;;7.85;;
66298;SDS011;53098;47.658;8.578;2023-09-30T06:28:21;15.98;;;7.07;;
66298;SDS011;53098;47.658;8.578;2023-09-30T06:30:47;13.98;;;6.45;;
66298;SDS011;53098;47.658;8.578;2023-09-30T06:33:12;16.40;;;6.25;;
66298;SDS011;53098;47.658;8.578;2023-09-30T06:35:38;13.70;;;5.97;;
66298;SDS011;53098;47.658;8.578;2023-09-30T06:38:06;17.60;;;6.32;;
66298;SDS011;53098;47.658;8.578;2023-09-30T06:40:31;16.58;;;5.88;;
66298;SDS011;53098;47.658;8.578;2023-09-30T06:42:57;12.95;;;5.20;;
66298;SDS011;53098;47.658;8.578;2023-09-30T06:45:22;15.55;;;5.53;;
66298;SDS011;53098;47.658;8.578;2023-09-30T06:47:47;14.77;;;5.53;;
66298;SDS011;53098;47.658;8.578;2023-09-30T06:50:14;16.17;;;5.25;;
66298;SDS011;53098;47.658;8.578;2023-09-30T06:52:40;13.90;;;4.97;;
66298;SDS011;53098;47.658;8.578;2023-09-30T06:55:07;15.05;;;4.53;;
66298;SDS011;53098;47.658;8.578;2023-09-30T06:57:36;17.38;;;4.70;;
66298;SDS011;53098;47.658;8.578;2023-09-30T07:00:06;16.27;;;5.10;;
66298;SDS011;53098;47.658;8.578;2023-09-30T07:02:32;15.20;;;5.70;;
66298;SDS011;53098;47.658;8.578;2023-09-30T07:04:57;14.63;;;5.75;;
66298;SDS011;53098;47.658;8.578;2023-09-30T07:07:23;16.58;;;5.82;;
66298;SDS011;53098;47.658;8.578;2023-09-30T07:09:48;15.40;;;4.85;;
66298;SDS011;53098;47.658;8.578;2023-09-30T07:12:13;16.55;;;5.57;;
66298;SDS011;53098;47.658;8.578;2023-09-30T07:14:39;13.85;;;5.07;;
66298;SDS011;53098;47.658;8.578;2023-09-30T07:17:04;15.95;;;5.20;;
66298;SDS011;53098;47.658;8.578;2023-09-30T07:19:30;13.30;;;4.28;;
66298;SDS011;53098;47.658;8.578;2023-09-30T07:21:56;15.18;;;4.45;;
66298;SDS011;53098;47.658;8.578;2023-09-30T07:24:21;14.35;;;4.60;;
66298;SDS011;53098;47.658;8.578;2023-09-30T07:26:46;13.68;;;4.05;;
66298;SDS011;53098;47.658;8.578;2023-09-30T07:29:12;15.52;;;4.72;;
66298;SDS011;53098;47.658;8.578;2023-09-30T07:31:37;13.05;;;4.30;;
66298;SDS011;53098;47.658;8.578;2023-09-30T07:34:03;13.95;;;4.85;;
66298;SDS011;53098;47.658;8.578;2023-09-30T07:36:29;14.40;;;4.60;;
66298;SDS011;53098;47.658;8.578;2023-09-30T07:38:54;13.00;;;4.38;;
66298;SDS011;53098;47.658;8.578;2023-09-30T07:41:19;13.15;;;4.50;;
66298;SDS011;53098;47.658;8.578;2023-09-30T07:43:45;15.15;;;4.45;;
66298;SDS011;53098;47.658;8.578;2023-09-30T07:46:10;13.23;;;4.72;;
66298;SDS011;53098;47.658;8.578;2023-09-30T07:48:36;12.95;;;4.68;;
66298;SDS011;53098;47.658;8.578;2023-09-30T07:51:01;13.60;;;4.80;;
66298;SDS011;53098;47.658;8.578;2023-09-30T07:53:27;13.30;;;4.50;;
66298;SDS011;53098;47.658;8.578;2023-09-30T07:55:53;14.95;;;4.97;;
66298;SDS011;53098;47.658;8.578;2023-09-30T07:58:18;18.52;;;4.70;;
66298;SDS011;53098;47.658;8.578;2023-09-30T08:00:44;18.38;;;5.13;;
66298;SDS011;53098;47.658;8.578;2023-09-30T08:03:09;16.00;;;4.80;;
66298;SDS011;53098;47.658;8.578;2023-09-30T08:05:35;12.55;;;4.18;;
66298;SDS011;53098;47.658;8.578;2023-09-30T08:08:01;12.90;;;4.28;;
66298;SDS011;53098;47.658;8.578;2023-09-30T08:10:27;12.40;;;4.18;;
66298;SDS011;53098;47.658;8.578;2023-09-30T08:12:52;11.85;;;3.85;;
66298;SDS011;53098;47.658;8.578;2023-09-30T08:15:18;14.27;;;4.20;;
66298;SDS011;53098;47.658;8.578;2023-09-30T08:17:43;12.52;;;3.80;;
66298;SDS011;53098;47.658;8.578;2023-09-30T08:20:09;14.25;;;4.38;;
66298;SDS011;53098;47.658;8.578;2023-09-30T08:22:35;12.43;;;3.80;;
66298;SDS011;53098;47.658;8.578;2023-09-30T08:25:00;12.27;;;4.00;;
66298;SDS011;53098;47.658;8.578;2023-09-30T08:27:26;11.52;;;3.95;;
66298;SDS011;53098;47.658;8.578;2023-09-30T08:29:51;12.93;;;4.63;;
66298;SDS011;53098;47.658;8.578;2023-09-30T08:32:17;14.23;;;4.15;;
66298;SDS011;53098;47.658;8.578;2023-09-30T08:34:42;16.40;;;4.68;;
66298;SDS011;53098;47.658;8.578;2023-09-30T08:37:07;14.23;;;4.13;;
66298;SDS011;53098;47.658;8.578;2023-09-30T08:39:37;13.15;;;4.10;;
66298;SDS011;53098;47.658;8.578;2023-09-30T08:42:05;14.20;;;4.25;;
66298;SDS011;53098;47.658;8.578;2023-09-30T08:44:35;11.10;;;3.65;;
66298;SDS011;53098;47.658;8.578;2023-09-30T08:47:03;12.80;;;4.22;;
66298;SDS011;53098;47.658;8.578;2023-09-30T08:49:30;13.18;;;3.75;;
66298;SDS011;53098;47.658;8.578;2023-09-30T08:51:59;11.18;;;4.28;;
66298;SDS011;53098;47.658;8.578;2023-09-30T08:54:25;12.45;;;4.05;;
66298;SDS011;53098;47.658;8.578;2023-09-30T08:56:51;13.27;;;4.18;;
66298;SDS011;53098;47.658;8.578;2023-09-30T08:59:17;15.32;;;4.45;;
66298;SDS011;53098;47.658;8.578;2023-09-30T09:01:42;12.70;;;4.32;;
66298;SDS011;53098;47.658;8.578;2023-09-30T09:04:08;10.88;;;3.65;;
66298;SDS011;53098;47.658;8.578;2023-09-30T09:06:33;12.48;;;4.43;;
66298;SDS011;53098;47.658;8.578;2023-09-30T09:09:20;12.88;;;4.50;;
66298;SDS011;53098;47.658;8.578;2023-09-30T09:11:45;12.98;;;4.60;;
66298;SDS011;53098;47.658;8.578;2023-09-30T09:14:10;13.10;;;3.72;;
66298;SDS011;53098;47.658;8.578;2023-09-30T09:16:36;12.55;;;3.80;;
66298;SDS011;53098;47.658;8.578;2023-09-30T09:19:14;11.90;;;4.07;;
66298;SDS011;53098;47.658;8.578;2023-09-30T09:21:41;14.80;;;4.30;;
66298;SDS011;53098;47.658;8.578;2023-09-30T09:27:03;13.38;;;4.13;;
66298;SDS011;53098;47.658;8.578;2023-09-30T09:29:29;12.73;;;4.10;;
66298;SDS011;53098;47.658;8.578;2023-09-30T09:31:54;13.57;;;4.45;;
66298;SDS011;53098;47.658;8.578;2023-09-30T09:34:35;12.70;;;4.20;;
66298;SDS011;53098;47.658;8.578;2023-09-30T09:37:01;11.35;;;3.83;;
66298;SDS011;53098;47.658;8.578;2023-09-30T09:42:26;11.95;;;3.92;;
66298;SDS011;53098;47.658;8.578;2023-09-30T09:44:59;11.82;;;4.28;;
66298;SDS011;53098;47.658;8.578;2023-09-30T09:47:26;12.32;;;4.55;;
66298;SDS011;53098;47.658;8.578;2023-09-30T09:49:51;14.65;;;4.60;;
66298;SDS011;53098;47.658;8.578;2023-09-30T09:52:17;13.15;;;4.80;;
66298;SDS011;53098;47.658;8.578;2023-09-30T09:54:43;13.68;;;4.40;;
66298;SDS011;53098;47.658;8.578;2023-09-30T09:57:10;14.32;;;4.60;;
66298;SDS011;53098;47.658;8.578;2023-09-30T09:59:38;15.70;;;4.60;;
66298;SDS011;53098;47.658;8.578;2023-09-30T10:02:06;12.60;;;4.32;;
66298;SDS011;53098;47.658;8.578;2023-09-30T10:04:36;15.45;;;4.30;;
66298;SDS011;53098;47.658;8.578;2023-09-30T10:07:02;14.15;;;4.63;;
66298;SDS011;53098;47.658;8.578;2023-09-30T10:09:30;14.00;;;4.45;;
66298;SDS011;53098;47.658;8.578;2023-09-30T10:12:00;13.43;;;4.45;;
66298;SDS011;53098;47.658;8.578;2023-09-30T10:14:32;12.80;;;4.53;;
66298;SDS011;53098;47.658;8.578;2023-09-30T10:16:58;13.65;;;4.65;;
66298;SDS011;53098;47.658;8.578;2023-09-30T10:19:24;14.00;;;3.72;;
66298;SDS011;53098;47.658;8.578;2023-09-30T10:24:43;13.18;;;4.60;;
66298;SDS011;53098;47.658;8.578;2023-09-30T10:29:47;13.88;;;5.13;;
66298;SDS011;53098;47.658;8.578;2023-09-30T10:32:12;16.30;;;5.25;;
66298;SDS011;53098;47.658;8.578;2023-09-30T10:34:38;15.88;;;4.93;;
66298;SDS011;53098;47.658;8.578;2023-09-30T10:37:20;14.60;;;5.22;;
66298;SDS011;53098;47.658;8.578;2023-09-30T10:39:56;14.30;;;5.22;;
66298;SDS011;53098;47.658;8.578;2023-09-30T10:53:17;15.02;;;5.65;;
66298;SDS011;53098;47.658;8.578;2023-09-30T10:55:46;16.20;;;5.85;;
66298;SDS011;53098;47.658;8.578;2023-09-30T10:58:12;14.80;;;5.45;;
66298;SDS011;53098;47.658;8.578;2023-09-30T11:00:38;15.90;;;5.57;;
66298;SDS011;53098;47.658;8.578;2023-09-30T11:03:04;14.80;;;5.72;;
66298;SDS011;53098;47.658;8.578;2023-09-30T11:05:29;16.85;;;5.60;;
66298;SDS011;53098;47.658;8.578;2023-09-30T11:07:56;17.88;;;6.32;;
66298;SDS011;53098;47.658;8.578;2023-09-30T11:10:22;17.45;;;6.00;;
66298;SDS011;53098;47.658;8.578;2023-09-30T11:12:54;16.48;;;5.55;;
66298;SDS011;53098;47.658;8.578;2023-09-30T11:15:20;15.45;;;5.53;;
66298;SDS011;53098;47.658;8.578;2023-09-30T11:17:46;14.18;;;5.30;;
66298;SDS011;53098;47.658;8.578;2023-09-30T11:20:11;16.60;;;6.22;;
66298;SDS011;53098;47.658;8.578;2023-09-30T11:22:36;16.60;;;5.68;;
66298;SDS011;53098;47.658;8.578;2023-09-30T11:25:02;18.08;;;7.00;;
66298;SDS011;53098;47.658;8.578;2023-09-30T11:27:28;17.00;;;6.20;;
66298;SDS011;53098;47.658;8.578;2023-09-30T11:29:53;17.85;;;6.10;;
66298;SDS011;53098;47.658;8.578;2023-09-30T11:32:23;13.48;;;5.57;;
66298;SDS011;53098;47.658;8.578;2023-09-30T11:34:49;16.75;;;6.57;;
66298;SDS011;53098;47.658;8.578;2023-09-30T11:37:14;16.02;;;5.95;;
66298;SDS011;53098;47.658;8.578;2023-09-30T11:39:40;16.23;;;6.45;;
66298;SDS011;53098;47.658;8.578;2023-09-30T11:42:14;17.02;;;6.57;;
66298;SDS011;53098;47.658;8.578;2023-09-30T11:44:47;15.75;;;6.35;;
66298;SDS011;53098;47.658;8.578;2023-09-30T11:47:13;18.20;;;6.00;;
66298;SDS011;53098;47.658;8.578;2023-09-30T11:49:40;15.07;;;6.53;;
66298;SDS011;53098;47.658;8.578;2023-09-30T11:52:09;13.20;;;5.22;;
66298;SDS011;53098;47.658;8.578;2023-09-30T11:54:39;17.23;;;6.22;;
66298;SDS011;53098;47.658;8.578;2023-09-30T11:57:06;17.02;;;6.55;;
66298;SDS011;53098;47.658;8.578;2023-09-30T11:59:32;19.10;;;6.88;;
66298;SDS011;53098;47.658;8.578;2023-09-30T12:01:58;16.52;;;6.28;;
66298;SDS011;53098;47.658;8.578;2023-09-30T12:04:24;17.17;;;6.10;;
66298;SDS011;53098;47.658;8.578;2023-09-30T12:06:50;17.33;;;5.85;;
66298;SDS011;53098;47.658;8.578;2023-09-30T12:09:15;16.30;;;6.22;;
66298;SDS011;53098;47.658;8.578;2023-09-30T12:11:41;17.45;;;5.80;;
66298;SDS011;53098;47.658;8.578;2023-09-30T12:14:07;18.60;;;6.00;;
66298;SDS011;53098;47.658;8.578;2023-09-30T12:16:32;16.67;;;6.25;;
66298;SDS011;53098;47.658;8.578;2023-09-30T12:18:57;16.05;;;5.90;;
66298;SDS011;53098;47.658;8.578;2023-09-30T12:21:23;14.90;;;5.45;;
66298;SDS011;53098;47.658;8.578;2023-09-30T12:23:48;16.25;;;6.50;;
66298;SDS011;53098;47.658;8.578;2023-09-30T12:26:14;16.05;;;6.30;;
66298;SDS011;53098;47.658;8.578;2023-09-30T12:28:40;18.38;;;6.63;;
66298;SDS011;53098;47.658;8.578;2023-09-30T12:31:05;17.42;;;6.97;;
66298;SDS011;53098;47.658;8.578;2023-09-30T12:33:31;18.33;;;6.25;;
66298;SDS011;53098;47.658;8.578;2023-09-30T12:35:56;16.95;;;7.00;;
66298;SDS011;53098;47.658;8.578;2023-09-30T12:38:22;18.30;;;6.07;;
66298;SDS011;53098;47.658;8.578;2023-09-30T12:40:47;17.27;;;6.40;;
66298;SDS011;53098;47.658;8.578;2023-09-30T12:43:13;15.80;;;5.95;;
66298;SDS011;53098;47.658;8.578;2023-09-30T12:45:38;15.32;;;5.97;;
66298;SDS011;53098;47.658;8.578;2023-09-30T12:48:04;17.92;;;6.60;;
66298;SDS011;53098;47.658;8.578;2023-09-30T12:50:29;16.17;;;5.93;;
66298;SDS011;53098;47.658;8.578;2023-09-30T12:52:56;16.40;;;6.00;;
66298;SDS011;53098;47.658;8.578;2023-09-30T12:55:21;15.43;;;5.55;;
66298;SDS011;53098;47.658;8.578;2023-09-30T12:57:47;17.98;;;6.63;;
66298;SDS011;53098;47.658;8.578;2023-09-30T13:00:12;17.98;;;6.38;;
66298;SDS011;53098;47.658;8.578;2023-09-30T13:02:38;16.92;;;6.13;;
66298;SDS011;53098;47.658;8.578;2023-09-30T13:05:04;16.33;;;6.05;;
66298;SDS011;53098;47.658;8.578;2023-09-30T13:07:29;14.82;;;5.85;;
66298;SDS011;53098;47.658;8.578;2023-09-30T13:09:55;15.27;;;5.82;;
66298;SDS011;53098;47.658;8.578;2023-09-30T13:12:20;14.73;;;5.85;;
66298;SDS011;53098;47.658;8.578;2023-09-30T13:14:45;15.57;;;6.18;;
66298;SDS011;53098;47.658;8.578;2023-09-30T13:17:11;15.23;;;5.80;;
66298;SDS011;53098;47.658;8.578;2023-09-30T13:19:36;16.45;;;6.28;;
66298;SDS011;53098;47.658;8.578;2023-09-30T13:22:02;17.83;;;6.47;;
66298;SDS011;53098;47.658;8.578;2023-09-30T13:24:27;17.33;;;6.80;;
66298;SDS011;53098;47.658;8.578;2023-09-30T13:26:53;13.38;;;5.40;;
66298;SDS011;53098;47.658;8.578;2023-09-30T13:29:18;14.93;;;6.15;;
66298;SDS011;53098;47.658;8.578;2023-09-30T13:31:44;18.23;;;6.78;;
66298;SDS011;53098;47.658;8.578;2023-09-30T13:34:09;14.98;;;6.25;;
66298;SDS011;53098;47.658;8.578;2023-09-30T13:36:35;17.70;;;6.57;;
66298;SDS011;53098;47.658;8.578;2023-09-30T13:39:00;15.52;;;5.68;;
66298;SDS011;53098;47.658;8.578;2023-09-30T13:41:26;15.68;;;6.75;;
66298;SDS011;53098;47.658;8.578;2023-09-30T13:43:52;15.82;;;6.50;;
66298;SDS011;53098;47.658;8.578;2023-09-30T13:46:17;23.70;;;6.85;;
66298;SDS011;53098;47.658;8.578;2023-09-30T13:48:43;20.35;;;6.22;;
66298;SDS011;53098;47.658;8.578;2023-09-30T13:51:08;16.70;;;5.82;;
66298;SDS011;53098;47.658;8.578;2023-09-30T13:53:35;16.48;;;6.40;;
66298;SDS011;53098;47.658;8.578;2023-09-30T13:56:00;14.43;;;5.68;;
66298;SDS011;53098;47.658;8.578;2023-09-30T13:58:26;16.02;;;6.30;;
66298;SDS011;53098;47.658;8.578;2023-09-30T14:00:52;15.20;;;5.85;;
66298;SDS011;53098;47.658;8.578;2023-09-30T14:03:20;15.38;;;6.30;;
66298;SDS011;53098;47.658;8.578;2023-09-30T14:05:46;16.00;;;6.00;;
66298;SDS011;53098;47.658;8.578;2023-09-30T14:08:12;15.05;;;6.03;;
66298;SDS011;53098;47.658;8.578;2023-09-30T14:10:38;15.38;;;6.53;;
66298;SDS011;53098;47.658;8.578;2023-09-30T14:13:03;15.85;;;6.20;;
66298;SDS011;53098;47.658;8.578;2023-09-30T14:15:29;16.25;;;5.72;;
66298;SDS011;53098;47.658;8.578;2023-09-30T14:17:55;16.40;;;5.90;;
66298;SDS011;53098;47.658;8.578;2023-09-30T14:20:20;17.60;;;6.30;;
66298;SDS011;53098;47.658;8.578;2023-09-30T14:22:46;15.88;;;6.10;;
66298;SDS011;53098;47.658;8.578;2023-09-30T14:25:12;19.17;;;6.50;;
66298;SDS011;53098;47.658;8.578;2023-09-30T14:27:37;16.25;;;6.07;;
66298;SDS011;53098;47.658;8.578;2023-09-30T14:30:03;17.55;;;6.60;;
66298;SDS011;53098;47.658;8.578;2023-09-30T14:32:28;16.92;;;6.30;;
66298;SDS011;53098;47.658;8.578;2023-09-30T14:34:54;16.50;;;6.60;;
66298;SDS011;53098;47.658;8.578;2023-09-30T14:37:19;17.75;;;6.38;;
66298;SDS011;53098;47.658;8.578;2023-09-30T14:39:44;16.17;;;6.78;;
66298;SDS011;53098;47.658;8.578;2023-09-30T14:42:10;18.13;;;6.90;;
66298;SDS011;53098;47.658;8.578;2023-09-30T14:44:35;15.77;;;6.45;;
66298;SDS011;53098;47.658;8.578;2023-09-30T14:47:01;15.73;;;6.15;;
66298;SDS011;53098;47.658;8.578;2023-09-30T14:49:26;16.40;;;6.03;;